sensor_id;sensor_type;location;lat;lon;timestamp;P1;durP1;ratioP1;P2;durP2;ratioP2
38715;SDS011;24833;49.324;8.694;2022-07-21T00:00:23;14.10;;;9.60;;
38715;SDS011;24833;49.324;8.694;2022-07-21T00:02:53;10.90;;;9.40;;
38715;SDS011;24833;49.324;8.694;2022-07-21T00:05:21;12.40;;;9.57;;
38715;SDS011;24833;49.324;8.694;2022-07-21T00:07:49;13.57;;;10.02;;
38715;SDS011;24833;49.324;8.694;2022-07-21T00:10:18;12.45;;;9.85;;
38715;SDS011;24833;49.324;8.694;2022-07-21T00:12:47;10.43;;;8.68;;
38715;SDS011;24833;49.324;8.694;2022-07-21T00:15:15;10.38;;;9.27;;
38715;SDS011;24833;49.324;8.694;2022-07-21T00:17:46;13.20;;;10.68;;
38715;SDS011;24833;49.324;8.694;2022-07-21T00:20:13;11.43;;;10.25;;
38715;SDS011;24833;49.324;8.694;2022-07-21T00:22:42;15.50;;;9.82;;
38715;SDS011;24833;49.324;8.694;2022-07-21T00:25:09;10.23;;;9.15;;
38715;SDS011;24833;49.324;8.694;2022-07-21T00:27:38;10.82;;;9.73;;
38715;SDS011;24833;49.324;8.694;2022-07-21T00:30:06;12.43;;;10.93;;
38715;SDS011;24833;49.324;8.694;2022-07-21T00:32:35;12.45;;;10.00;;
38715;SDS011;24833;49.324;8.694;2022-07-21T00:35:03;12.90;;;10.75;;
38715;SDS011;24833;49.324;8.694;2022-07-21T00:37:32;11.90;;;9.30;;
38715;SDS011;24833;49.324;8.694;2022-07-21T00:40:00;10.27;;;8.40;;
38715;SDS011;24833;49.324;8.694;2022-07-21T00:42:29;10.88;;;9.13;;
38715;SDS011;24833;49.324;8.694;2022-07-21T00:44:57;12.15;;;9.40;;
38715;SDS011;24833;49.324;8.694;2022-07-21T00:47:27;10.10;;;8.60;;
38715;SDS011;24833;49.324;8.694;2022-07-21T00:49:57;9.35;;;8.35;;
38715;SDS011;24833;49.324;8.694;2022-07-21T00:52:26;10.40;;;9.40;;
38715;SDS011;24833;49.324;8.694;2022-07-21T00:54:53;10.93;;;9.82;;
38715;SDS011;24833;49.324;8.694;2022-07-21T00:57:20;15.38;;;11.82;;
38715;SDS011;24833;49.324;8.694;2022-07-21T00:59:47;22.33;;;12.90;;
38715;SDS011;24833;49.324;8.694;2022-07-21T01:02:15;18.42;;;11.93;;
38715;SDS011;24833;49.324;8.694;2022-07-21T01:04:42;16.23;;;14.52;;
38715;SDS011;24833;49.324;8.694;2022-07-21T01:07:09;16.73;;;11.45;;
38715;SDS011;24833;49.324;8.694;2022-07-21T01:09:36;18.42;;;12.02;;
38715;SDS011;24833;49.324;8.694;2022-07-21T01:12:03;19.27;;;12.30;;
38715;SDS011;24833;49.324;8.694;2022-07-21T01:14:31;19.05;;;13.63;;
38715;SDS011;24833;49.324;8.694;2022-07-21T01:17:00;16.75;;;15.18;;
38715;SDS011;24833;49.324;8.694;2022-07-21T01:19:29;14.63;;;12.40;;
38715;SDS011;24833;49.324;8.694;2022-07-21T01:21:57;17.52;;;14.32;;
38715;SDS011;24833;49.324;8.694;2022-07-21T01:24:24;17.23;;;15.10;;
38715;SDS011;24833;49.324;8.694;2022-07-21T01:26:52;17.38;;;13.60;;
38715;SDS011;24833;49.324;8.694;2022-07-21T01:29:20;18.55;;;13.68;;
38715;SDS011;24833;49.324;8.694;2022-07-21T01:31:49;14.15;;;12.65;;
38715;SDS011;24833;49.324;8.694;2022-07-21T01:34:17;16.88;;;15.07;;
38715;SDS011;24833;49.324;8.694;2022-07-21T01:36:44;19.83;;;15.18;;
38715;SDS011;24833;49.324;8.694;2022-07-21T01:39:12;14.63;;;12.35;;
38715;SDS011;24833;49.324;8.694;2022-07-21T01:41:58;13.93;;;11.13;;
38715;SDS011;24833;49.324;8.694;2022-07-21T01:44:25;13.02;;;10.45;;
38715;SDS011;24833;49.324;8.694;2022-07-21T01:46:52;15.45;;;13.65;;
38715;SDS011;24833;49.324;8.694;2022-07-21T01:49:19;16.52;;;13.75;;
38715;SDS011;24833;49.324;8.694;2022-07-21T01:51:48;14.73;;;13.13;;
38715;SDS011;24833;49.324;8.694;2022-07-21T01:54:16;16.38;;;13.07;;
38715;SDS011;24833;49.324;8.694;2022-07-21T01:56:49;18.13;;;16.23;;
38715;SDS011;24833;49.324;8.694;2022-07-21T01:59:17;18.73;;;16.05;;
38715;SDS011;24833;49.324;8.694;2022-07-21T02:01:45;16.50;;;14.90;;
38715;SDS011;24833;49.324;8.694;2022-07-21T02:04:12;16.30;;;14.35;;
38715;SDS011;24833;49.324;8.694;2022-07-21T02:06:40;19.60;;;15.82;;
38715;SDS011;24833;49.324;8.694;2022-07-21T02:09:07;13.85;;;12.45;;
38715;SDS011;24833;49.324;8.694;2022-07-21T02:11:34;15.32;;;13.82;;
38715;SDS011;24833;49.324;8.694;2022-07-21T02:14:02;16.92;;;15.25;;
38715;SDS011;24833;49.324;8.694;2022-07-21T02:16:29;16.95;;;14.82;;
38715;SDS011;24833;49.324;8.694;2022-07-21T02:18:57;16.38;;;14.73;;
38715;SDS011;24833;49.324;8.694;2022-07-21T02:21:24;15.80;;;14.10;;
38715;SDS011;24833;49.324;8.694;2022-07-21T02:23:51;17.85;;;15.70;;
38715;SDS011;24833;49.324;8.694;2022-07-21T02:26:18;20.35;;;15.93;;
38715;SDS011;24833;49.324;8.694;2022-07-21T02:28:45;17.75;;;15.68;;
38715;SDS011;24833;49.324;8.694;2022-07-21T02:31:12;14.95;;;13.45;;
38715;SDS011;24833;49.324;8.694;2022-07-21T02:33:39;17.23;;;14.02;;
38715;SDS011;24833;49.324;8.694;2022-07-21T02:36:07;16.60;;;14.30;;
38715;SDS011;24833;49.324;8.694;2022-07-21T02:38:34;13.15;;;11.30;;
38715;SDS011;24833;49.324;8.694;2022-07-21T02:41:01;15.60;;;13.25;;
38715;SDS011;24833;49.324;8.694;2022-07-21T02:43:28;12.77;;;11.50;;
38715;SDS011;24833;49.324;8.694;2022-07-21T02:45:55;15.52;;;13.93;;
38715;SDS011;24833;49.324;8.694;2022-07-21T02:48:22;13.73;;;11.25;;
38715;SDS011;24833;49.324;8.694;2022-07-21T02:50:49;17.67;;;12.13;;
38715;SDS011;24833;49.324;8.694;2022-07-21T02:53:18;15.85;;;14.18;;
38715;SDS011;24833;49.324;8.694;2022-07-21T02:55:46;19.35;;;15.05;;
38715;SDS011;24833;49.324;8.694;2022-07-21T02:58:19;16.45;;;13.63;;
38715;SDS011;24833;49.324;8.694;2022-07-21T03:00:55;15.80;;;14.18;;
38715;SDS011;24833;49.324;8.694;2022-07-21T03:03:28;14.77;;;13.27;;
38715;SDS011;24833;49.324;8.694;2022-07-21T03:05:59;19.48;;;14.05;;
38715;SDS011;24833;49.324;8.694;2022-07-21T03:08:27;14.35;;;11.07;;
38715;SDS011;24833;49.324;8.694;2022-07-21T03:10:57;11.30;;;10.18;;
38715;SDS011;24833;49.324;8.694;2022-07-21T03:13:24;13.02;;;11.48;;
38715;SDS011;24833;49.324;8.694;2022-07-21T03:15:51;13.13;;;11.60;;
38715;SDS011;24833;49.324;8.694;2022-07-21T03:18:19;17.15;;;14.63;;
38715;SDS011;24833;49.324;8.694;2022-07-21T03:20:46;12.18;;;10.80;;
38715;SDS011;24833;49.324;8.694;2022-07-21T03:23:14;14.88;;;13.27;;
38715;SDS011;24833;49.324;8.694;2022-07-21T03:25:41;15.95;;;13.27;;
38715;SDS011;24833;49.324;8.694;2022-07-21T03:28:08;15.90;;;14.23;;
38715;SDS011;24833;49.324;8.694;2022-07-21T03:30:35;14.23;;;12.80;;
38715;SDS011;24833;49.324;8.694;2022-07-21T03:33:03;13.95;;;12.15;;
38715;SDS011;24833;49.324;8.694;2022-07-21T03:35:30;17.08;;;12.73;;
38715;SDS011;24833;49.324;8.694;2022-07-21T03:37:58;16.88;;;15.18;;
38715;SDS011;24833;49.324;8.694;2022-07-21T03:40:29;17.77;;;14.00;;
38715;SDS011;24833;49.324;8.694;2022-07-21T03:43:00;15.25;;;13.60;;
38715;SDS011;24833;49.324;8.694;2022-07-21T03:45:29;14.97;;;11.20;;
38715;SDS011;24833;49.324;8.694;2022-07-21T03:47:58;14.55;;;13.02;;
38715;SDS011;24833;49.324;8.694;2022-07-21T03:50:27;14.50;;;12.82;;
38715;SDS011;24833;49.324;8.694;2022-07-21T03:52:56;17.85;;;14.18;;
38715;SDS011;24833;49.324;8.694;2022-07-21T03:55:23;14.13;;;11.45;;
38715;SDS011;24833;49.324;8.694;2022-07-21T03:57:51;14.35;;;12.82;;
38715;SDS011;24833;49.324;8.694;2022-07-21T04:00:29;16.77;;;12.20;;
38715;SDS011;24833;49.324;8.694;2022-07-21T04:03:01;14.07;;;9.63;;
38715;SDS011;24833;49.324;8.694;2022-07-21T04:05:30;10.30;;;9.32;;
38715;SDS011;24833;49.324;8.694;2022-07-21T04:07:58;16.05;;;13.07;;
38715;SDS011;24833;49.324;8.694;2022-07-21T04:10:26;14.63;;;12.40;;
38715;SDS011;24833;49.324;8.694;2022-07-21T04:15:24;10.40;;;9.48;;
38715;SDS011;24833;49.324;8.694;2022-07-21T04:17:52;12.73;;;11.48;;
38715;SDS011;24833;49.324;8.694;2022-07-21T04:20:20;15.40;;;13.80;;
38715;SDS011;24833;49.324;8.694;2022-07-21T04:22:48;14.18;;;11.80;;
38715;SDS011;24833;49.324;8.694;2022-07-21T04:25:17;14.90;;;9.80;;
38715;SDS011;24833;49.324;8.694;2022-07-21T04:27:44;9.65;;;8.80;;
38715;SDS011;24833;49.324;8.694;2022-07-21T04:30:14;13.55;;;11.52;;
38715;SDS011;24833;49.324;8.694;2022-07-21T04:32:45;17.25;;;12.77;;
38715;SDS011;24833;49.324;8.694;2022-07-21T04:35:13;11.57;;;10.43;;
38715;SDS011;24833;49.324;8.694;2022-07-21T04:37:41;11.63;;;10.57;;
38715;SDS011;24833;49.324;8.694;2022-07-21T04:40:10;13.73;;;12.27;;
38715;SDS011;24833;49.324;8.694;2022-07-21T04:42:39;10.68;;;9.50;;
38715;SDS011;24833;49.324;8.694;2022-07-21T04:45:08;10.98;;;8.90;;
38715;SDS011;24833;49.324;8.694;2022-07-21T04:47:47;10.93;;;9.83;;
38715;SDS011;24833;49.324;8.694;2022-07-21T04:50:22;13.80;;;9.98;;
38715;SDS011;24833;49.324;8.694;2022-07-21T04:52:52;15.68;;;12.23;;
38715;SDS011;24833;49.324;8.694;2022-07-21T04:55:20;12.25;;;10.80;;
38715;SDS011;24833;49.324;8.694;2022-07-21T04:57:49;12.82;;;11.05;;
38715;SDS011;24833;49.324;8.694;2022-07-21T05:00:20;17.02;;;11.93;;
38715;SDS011;24833;49.324;8.694;2022-07-21T05:02:51;14.93;;;13.18;;
38715;SDS011;24833;49.324;8.694;2022-07-21T05:05:19;17.13;;;14.30;;
38715;SDS011;24833;49.324;8.694;2022-07-21T05:07:47;14.15;;;12.65;;
38715;SDS011;24833;49.324;8.694;2022-07-21T05:10:15;15.55;;;13.95;;
38715;SDS011;24833;49.324;8.694;2022-07-21T05:12:44;17.25;;;14.48;;
38715;SDS011;24833;49.324;8.694;2022-07-21T05:15:12;15.40;;;13.77;;
38715;SDS011;24833;49.324;8.694;2022-07-21T05:17:40;17.90;;;13.77;;
38715;SDS011;24833;49.324;8.694;2022-07-21T05:20:07;15.82;;;14.23;;
38715;SDS011;24833;49.324;8.694;2022-07-21T05:22:36;13.18;;;11.63;;
38715;SDS011;24833;49.324;8.694;2022-07-21T05:25:04;12.55;;;11.27;;
38715;SDS011;24833;49.324;8.694;2022-07-21T05:27:32;12.68;;;10.07;;
38715;SDS011;24833;49.324;8.694;2022-07-21T05:30:00;14.82;;;11.68;;
38715;SDS011;24833;49.324;8.694;2022-07-21T05:32:27;11.30;;;10.20;;
38715;SDS011;24833;49.324;8.694;2022-07-21T05:34:54;13.18;;;11.70;;
38715;SDS011;24833;49.324;8.694;2022-07-21T05:37:21;14.10;;;11.75;;
38715;SDS011;24833;49.324;8.694;2022-07-21T05:39:48;13.80;;;11.63;;
38715;SDS011;24833;49.324;8.694;2022-07-21T05:42:15;15.57;;;12.25;;
38715;SDS011;24833;49.324;8.694;2022-07-21T05:44:42;13.75;;;12.32;;
38715;SDS011;24833;49.324;8.694;2022-07-21T05:47:09;13.73;;;12.32;;
38715;SDS011;24833;49.324;8.694;2022-07-21T05:49:36;10.98;;;9.23;;
38715;SDS011;24833;49.324;8.694;2022-07-21T05:52:03;13.57;;;10.20;;
38715;SDS011;24833;49.324;8.694;2022-07-21T05:54:31;11.15;;;10.05;;
38715;SDS011;24833;49.324;8.694;2022-07-21T05:56:58;12.32;;;11.23;;
38715;SDS011;24833;49.324;8.694;2022-07-21T05:59:26;10.02;;;8.85;;
38715;SDS011;24833;49.324;8.694;2022-07-21T06:01:53;10.00;;;9.05;;
38715;SDS011;24833;49.324;8.694;2022-07-21T06:04:20;12.57;;;9.18;;
38715;SDS011;24833;49.324;8.694;2022-07-21T06:06:47;9.65;;;7.93;;
38715;SDS011;24833;49.324;8.694;2022-07-21T06:09:14;7.32;;;6.63;;
38715;SDS011;24833;49.324;8.694;2022-07-21T06:11:41;9.77;;;7.95;;
38715;SDS011;24833;49.324;8.694;2022-07-21T06:14:08;11.27;;;9.65;;
38715;SDS011;24833;49.324;8.694;2022-07-21T06:16:36;9.45;;;7.93;;
38715;SDS011;24833;49.324;8.694;2022-07-21T06:19:04;15.38;;;9.30;;
38715;SDS011;24833;49.324;8.694;2022-07-21T06:21:32;10.25;;;8.30;;
38715;SDS011;24833;49.324;8.694;2022-07-21T06:24:08;9.18;;;7.55;;
38715;SDS011;24833;49.324;8.694;2022-07-21T06:26:36;11.18;;;9.48;;
38715;SDS011;24833;49.324;8.694;2022-07-21T06:29:04;9.60;;;8.43;;
38715;SDS011;24833;49.324;8.694;2022-07-21T06:31:33;11.07;;;7.45;;
38715;SDS011;24833;49.324;8.694;2022-07-21T06:34:00;8.85;;;7.82;;
38715;SDS011;24833;49.324;8.694;2022-07-21T06:36:27;9.07;;;7.60;;
38715;SDS011;24833;49.324;8.694;2022-07-21T06:38:54;8.57;;;7.30;;
38715;SDS011;24833;49.324;8.694;2022-07-21T06:41:21;9.43;;;7.25;;
38715;SDS011;24833;49.324;8.694;2022-07-21T06:43:48;8.90;;;7.97;;
38715;SDS011;24833;49.324;8.694;2022-07-21T06:46:16;8.35;;;7.38;;
38715;SDS011;24833;49.324;8.694;2022-07-21T06:48:44;7.93;;;6.88;;
38715;SDS011;24833;49.324;8.694;2022-07-21T06:51:11;7.47;;;5.88;;
38715;SDS011;24833;49.324;8.694;2022-07-21T06:53:38;6.80;;;6.20;;
38715;SDS011;24833;49.324;8.694;2022-07-21T06:56:05;9.02;;;7.03;;
38715;SDS011;24833;49.324;8.694;2022-07-21T06:58:32;8.52;;;7.05;;
38715;SDS011;24833;49.324;8.694;2022-07-21T07:01:05;11.10;;;5.90;;
38715;SDS011;24833;49.324;8.694;2022-07-21T07:03:33;6.88;;;6.18;;
38715;SDS011;24833;49.324;8.694;2022-07-21T07:06:01;11.30;;;6.93;;
38715;SDS011;24833;49.324;8.694;2022-07-21T07:08:29;8.32;;;6.40;;
38715;SDS011;24833;49.324;8.694;2022-07-21T07:10:57;7.13;;;6.43;;
38715;SDS011;24833;49.324;8.694;2022-07-21T07:13:25;8.02;;;6.60;;
38715;SDS011;24833;49.324;8.694;2022-07-21T07:16:12;9.00;;;6.85;;
38715;SDS011;24833;49.324;8.694;2022-07-21T07:18:39;9.75;;;6.70;;
38715;SDS011;24833;49.324;8.694;2022-07-21T07:21:06;7.88;;;6.65;;
38715;SDS011;24833;49.324;8.694;2022-07-21T07:26:05;7.70;;;6.45;;
38715;SDS011;24833;49.324;8.694;2022-07-21T07:28:34;8.15;;;6.40;;
38715;SDS011;24833;49.324;8.694;2022-07-21T07:31:01;8.90;;;7.47;;
38715;SDS011;24833;49.324;8.694;2022-07-21T07:33:28;8.15;;;6.60;;
38715;SDS011;24833;49.324;8.694;2022-07-21T07:35:55;11.38;;;7.63;;
38715;SDS011;24833;49.324;8.694;2022-07-21T07:38:23;8.88;;;6.68;;
38715;SDS011;24833;49.324;8.694;2022-07-21T07:40:51;8.15;;;6.38;;
38715;SDS011;24833;49.324;8.694;2022-07-21T07:43:18;7.47;;;6.20;;
38715;SDS011;24833;49.324;8.694;2022-07-21T07:45:45;7.43;;;5.32;;
38715;SDS011;24833;49.324;8.694;2022-07-21T07:48:12;6.72;;;6.00;;
38715;SDS011;24833;49.324;8.694;2022-07-21T07:50:39;7.03;;;6.32;;
38715;SDS011;24833;49.324;8.694;2022-07-21T07:53:06;9.68;;;7.35;;
38715;SDS011;24833;49.324;8.694;2022-07-21T07:55:33;8.68;;;6.35;;
38715;SDS011;24833;49.324;8.694;2022-07-21T07:58:00;8.50;;;6.50;;
38715;SDS011;24833;49.324;8.694;2022-07-21T08:00:28;11.02;;;6.63;;
38715;SDS011;24833;49.324;8.694;2022-07-21T08:03:15;10.90;;;7.60;;
38715;SDS011;24833;49.324;8.694;2022-07-21T08:05:42;8.52;;;6.35;;
38715;SDS011;24833;49.324;8.694;2022-07-21T08:08:09;12.45;;;6.50;;
38715;SDS011;24833;49.324;8.694;2022-07-21T08:10:37;7.20;;;6.28;;
38715;SDS011;24833;49.324;8.694;2022-07-21T08:13:08;8.57;;;6.55;;
38715;SDS011;24833;49.324;8.694;2022-07-21T08:15:36;6.43;;;5.68;;
38715;SDS011;24833;49.324;8.694;2022-07-21T08:18:04;6.10;;;5.28;;
38715;SDS011;24833;49.324;8.694;2022-07-21T08:20:33;8.82;;;5.85;;
38715;SDS011;24833;49.324;8.694;2022-07-21T08:23:01;5.65;;;5.15;;
38715;SDS011;24833;49.324;8.694;2022-07-21T08:25:29;9.57;;;5.75;;
38715;SDS011;24833;49.324;8.694;2022-07-21T08:27:56;6.65;;;5.40;;
38715;SDS011;24833;49.324;8.694;2022-07-21T08:30:23;5.90;;;5.35;;
38715;SDS011;24833;49.324;8.694;2022-07-21T08:32:59;7.25;;;5.20;;
38715;SDS011;24833;49.324;8.694;2022-07-21T08:35:28;5.70;;;4.50;;
38715;SDS011;24833;49.324;8.694;2022-07-21T08:38:01;6.00;;;5.35;;
38715;SDS011;24833;49.324;8.694;2022-07-21T08:40:32;6.75;;;4.60;;
38715;SDS011;24833;49.324;8.694;2022-07-21T08:43:03;7.35;;;5.32;;
38715;SDS011;24833;49.324;8.694;2022-07-21T08:45:32;7.22;;;6.00;;
38715;SDS011;24833;49.324;8.694;2022-07-21T08:47:59;6.57;;;5.60;;
38715;SDS011;24833;49.324;8.694;2022-07-21T08:50:31;7.75;;;5.55;;
38715;SDS011;24833;49.324;8.694;2022-07-21T08:53:08;5.97;;;5.00;;
38715;SDS011;24833;49.324;8.694;2022-07-21T08:55:36;7.63;;;5.22;;
38715;SDS011;24833;49.324;8.694;2022-07-21T08:58:10;7.65;;;4.95;;
38715;SDS011;24833;49.324;8.694;2022-07-21T09:00:41;6.57;;;5.50;;
38715;SDS011;24833;49.324;8.694;2022-07-21T09:03:16;6.90;;;4.57;;
38715;SDS011;24833;49.324;8.694;2022-07-21T09:06:03;5.85;;;4.78;;
38715;SDS011;24833;49.324;8.694;2022-07-21T09:08:37;5.22;;;4.82;;
38715;SDS011;24833;49.324;8.694;2022-07-21T09:11:23;5.78;;;5.18;;
38715;SDS011;24833;49.324;8.694;2022-07-21T09:14:06;9.30;;;5.03;;
38715;SDS011;24833;49.324;8.694;2022-07-21T09:16:40;7.00;;;5.72;;
38715;SDS011;24833;49.324;8.694;2022-07-21T09:19:24;7.38;;;5.47;;
38715;SDS011;24833;49.324;8.694;2022-07-21T09:21:54;7.35;;;5.50;;
38715;SDS011;24833;49.324;8.694;2022-07-21T09:24:27;8.40;;;5.85;;
38715;SDS011;24833;49.324;8.694;2022-07-21T09:29:36;8.27;;;5.63;;
38715;SDS011;24833;49.324;8.694;2022-07-21T09:32:18;6.63;;;5.85;;
38715;SDS011;24833;49.324;8.694;2022-07-21T09:34:51;7.18;;;5.82;;
38715;SDS011;24833;49.324;8.694;2022-07-21T09:37:32;10.02;;;5.22;;
38715;SDS011;24833;49.324;8.694;2022-07-21T09:40:02;7.47;;;5.10;;
38715;SDS011;24833;49.324;8.694;2022-07-21T09:42:36;6.88;;;5.38;;
38715;SDS011;24833;49.324;8.694;2022-07-21T09:45:07;8.88;;;5.72;;
38715;SDS011;24833;49.324;8.694;2022-07-21T09:47:38;5.32;;;4.82;;
38715;SDS011;24833;49.324;8.694;2022-07-21T09:50:10;7.75;;;6.40;;
38715;SDS011;24833;49.324;8.694;2022-07-21T09:52:56;5.97;;;5.35;;
38715;SDS011;24833;49.324;8.694;2022-07-21T09:55:24;10.25;;;5.90;;
38715;SDS011;24833;49.324;8.694;2022-07-21T09:57:51;8.70;;;4.78;;
38715;SDS011;24833;49.324;8.694;2022-07-21T10:00:21;6.07;;;5.45;;
38715;SDS011;24833;49.324;8.694;2022-07-21T10:02:48;8.73;;;5.85;;
38715;SDS011;24833;49.324;8.694;2022-07-21T10:05:18;5.25;;;4.65;;
38715;SDS011;24833;49.324;8.694;2022-07-21T10:07:54;4.90;;;4.43;;
38715;SDS011;24833;49.324;8.694;2022-07-21T10:10:24;5.70;;;4.80;;
38715;SDS011;24833;49.324;8.694;2022-07-21T10:13:11;7.97;;;4.47;;
38715;SDS011;24833;49.324;8.694;2022-07-21T10:15:38;6.03;;;5.13;;
38715;SDS011;24833;49.324;8.694;2022-07-21T10:18:06;5.88;;;4.13;;
38715;SDS011;24833;49.324;8.694;2022-07-21T10:20:37;5.78;;;4.00;;
38715;SDS011;24833;49.324;8.694;2022-07-21T10:23:16;5.85;;;4.60;;
38715;SDS011;24833;49.324;8.694;2022-07-21T10:26:00;6.53;;;4.80;;
38715;SDS011;24833;49.324;8.694;2022-07-21T10:28:29;4.88;;;4.38;;
38715;SDS011;24833;49.324;8.694;2022-07-21T10:30:57;8.48;;;4.88;;
38715;SDS011;24833;49.324;8.694;2022-07-21T10:36:11;5.00;;;4.13;;
38715;SDS011;24833;49.324;8.694;2022-07-21T10:39:22;4.68;;;4.20;;
38715;SDS011;24833;49.324;8.694;2022-07-21T10:41:54;5.65;;;3.85;;
38715;SDS011;24833;49.324;8.694;2022-07-21T10:47:38;4.38;;;3.92;;
38715;SDS011;24833;49.324;8.694;2022-07-21T10:49:53;6.47;;;4.28;;
38715;SDS011;24833;49.324;8.694;2022-07-21T10:55:15;4.20;;;3.80;;
38715;SDS011;24833;49.324;8.694;2022-07-21T10:57:44;4.20;;;3.80;;
38715;SDS011;24833;49.324;8.694;2022-07-21T11:00:34;6.65;;;3.63;;
38715;SDS011;24833;49.324;8.694;2022-07-21T11:03:18;4.15;;;3.20;;
38715;SDS011;24833;49.324;8.694;2022-07-21T11:06:09;3.92;;;3.40;;
38715;SDS011;24833;49.324;8.694;2022-07-21T11:08:46;4.07;;;3.67;;
38715;SDS011;24833;49.324;8.694;2022-07-21T11:11:22;4.85;;;3.70;;
38715;SDS011;24833;49.324;8.694;2022-07-21T11:22:12;4.47;;;3.60;;
38715;SDS011;24833;49.324;8.694;2022-07-21T11:24:43;8.25;;;4.70;;
38715;SDS011;24833;49.324;8.694;2022-07-21T11:27:20;7.63;;;3.53;;
38715;SDS011;24833;49.324;8.694;2022-07-21T11:29:54;3.70;;;3.30;;
38715;SDS011;24833;49.324;8.694;2022-07-21T11:32:24;4.68;;;3.83;;
38715;SDS011;24833;49.324;8.694;2022-07-21T11:34:56;4.20;;;3.80;;
38715;SDS011;24833;49.324;8.694;2022-07-21T11:37:41;4.55;;;3.55;;
38715;SDS011;24833;49.324;8.694;2022-07-21T11:40:16;4.93;;;3.30;;
38715;SDS011;24833;49.324;8.694;2022-07-21T11:42:46;4.10;;;3.70;;
38715;SDS011;24833;49.324;8.694;2022-07-21T11:45:17;4.03;;;3.30;;
38715;SDS011;24833;49.324;8.694;2022-07-21T11:47:47;6.38;;;3.25;;
38715;SDS011;24833;49.324;8.694;2022-07-21T11:50:17;5.45;;;2.92;;
38715;SDS011;24833;49.324;8.694;2022-07-21T11:52:45;5.60;;;3.03;;
38715;SDS011;24833;49.324;8.694;2022-07-21T11:55:13;5.70;;;3.22;;
38715;SDS011;24833;49.324;8.694;2022-07-21T11:57:41;5.80;;;2.90;;
38715;SDS011;24833;49.324;8.694;2022-07-21T12:00:10;3.85;;;3.20;;
38715;SDS011;24833;49.324;8.694;2022-07-21T12:02:39;3.90;;;2.80;;
38715;SDS011;24833;49.324;8.694;2022-07-21T12:05:07;3.40;;;3.10;;
38715;SDS011;24833;49.324;8.694;2022-07-21T12:07:43;6.82;;;3.50;;
38715;SDS011;24833;49.324;8.694;2022-07-21T12:10:22;4.20;;;3.58;;
38715;SDS011;24833;49.324;8.694;2022-07-21T12:12:56;3.83;;;3.10;;
38715;SDS011;24833;49.324;8.694;2022-07-21T12:15:35;4.68;;;2.90;;
38715;SDS011;24833;49.324;8.694;2022-07-21T12:18:07;3.80;;;2.60;;
38715;SDS011;24833;49.324;8.694;2022-07-21T12:21:00;3.33;;;2.83;;
38715;SDS011;24833;49.324;8.694;2022-07-21T12:23:30;4.47;;;2.92;;
38715;SDS011;24833;49.324;8.694;2022-07-21T12:26:00;3.45;;;3.15;;
38715;SDS011;24833;49.324;8.694;2022-07-21T12:28:45;5.00;;;3.38;;
38715;SDS011;24833;49.324;8.694;2022-07-21T12:31:21;3.13;;;2.70;;
38715;SDS011;24833;49.324;8.694;2022-07-21T12:33:50;3.92;;;2.95;;
38715;SDS011;24833;49.324;8.694;2022-07-21T12:36:41;4.57;;;3.05;;
38715;SDS011;24833;49.324;8.694;2022-07-21T12:39:13;3.60;;;3.28;;
38715;SDS011;24833;49.324;8.694;2022-07-21T12:42:11;5.85;;;3.42;;
38715;SDS011;24833;49.324;8.694;2022-07-21T12:44:57;3.83;;;3.42;;
38715;SDS011;24833;49.324;8.694;2022-07-21T12:47:28;4.80;;;2.90;;
38715;SDS011;24833;49.324;8.694;2022-07-21T12:50:00;5.40;;;3.35;;
38715;SDS011;24833;49.324;8.694;2022-07-21T12:52:41;4.25;;;3.30;;
38715;SDS011;24833;49.324;8.694;2022-07-21T12:55:10;4.80;;;3.00;;
38715;SDS011;24833;49.324;8.694;2022-07-21T12:57:37;4.00;;;3.03;;
38715;SDS011;24833;49.324;8.694;2022-07-21T13:00:07;4.55;;;3.25;;
38715;SDS011;24833;49.324;8.694;2022-07-21T13:05:32;3.72;;;2.92;;
38715;SDS011;24833;49.324;8.694;2022-07-21T13:07:59;4.50;;;2.60;;
38715;SDS011;24833;49.324;8.694;2022-07-21T13:10:26;3.25;;;2.97;;
38715;SDS011;24833;49.324;8.694;2022-07-21T13:12:55;4.53;;;2.90;;
38715;SDS011;24833;49.324;8.694;2022-07-21T13:15:22;3.30;;;3.00;;
38715;SDS011;24833;49.324;8.694;2022-07-21T13:17:49;4.25;;;2.63;;
38715;SDS011;24833;49.324;8.694;2022-07-21T13:20:16;3.60;;;2.72;;
38715;SDS011;24833;49.324;8.694;2022-07-21T13:22:43;4.55;;;3.30;;
38715;SDS011;24833;49.324;8.694;2022-07-21T13:25:11;4.90;;;3.60;;
38715;SDS011;24833;49.324;8.694;2022-07-21T13:27:38;5.97;;;2.70;;
38715;SDS011;24833;49.324;8.694;2022-07-21T13:30:13;3.38;;;3.08;;
38715;SDS011;24833;49.324;8.694;2022-07-21T13:32:41;3.30;;;2.83;;
38715;SDS011;24833;49.324;8.694;2022-07-21T13:35:08;5.78;;;3.75;;
38715;SDS011;24833;49.324;8.694;2022-07-21T13:37:51;4.78;;;3.08;;
38715;SDS011;24833;49.324;8.694;2022-07-21T13:40:19;6.18;;;3.45;;
38715;SDS011;24833;49.324;8.694;2022-07-21T13:43:07;3.78;;;2.70;;
38715;SDS011;24833;49.324;8.694;2022-07-21T13:45:54;6.15;;;3.22;;
38715;SDS011;24833;49.324;8.694;2022-07-21T13:48:21;4.40;;;3.58;;
38715;SDS011;24833;49.324;8.694;2022-07-21T13:50:48;7.68;;;3.10;;
38715;SDS011;24833;49.324;8.694;2022-07-21T13:53:16;6.07;;;3.05;;
38715;SDS011;24833;49.324;8.694;2022-07-21T13:55:43;3.20;;;2.83;;
38715;SDS011;24833;49.324;8.694;2022-07-21T13:58:11;3.35;;;3.03;;
38715;SDS011;24833;49.324;8.694;2022-07-21T14:00:38;3.83;;;3.10;;
38715;SDS011;24833;49.324;8.694;2022-07-21T14:03:09;4.10;;;3.15;;
38715;SDS011;24833;49.324;8.694;2022-07-21T14:05:37;4.32;;;2.83;;
38715;SDS011;24833;49.324;8.694;2022-07-21T14:08:04;4.13;;;3.13;;
38715;SDS011;24833;49.324;8.694;2022-07-21T14:10:31;4.68;;;2.80;;
38715;SDS011;24833;49.324;8.694;2022-07-21T14:12:59;3.10;;;2.80;;
38715;SDS011;24833;49.324;8.694;2022-07-21T14:15:27;3.47;;;2.90;;
38715;SDS011;24833;49.324;8.694;2022-07-21T14:17:54;3.13;;;2.53;;
38715;SDS011;24833;49.324;8.694;2022-07-21T14:20:23;3.53;;;3.08;;
38715;SDS011;24833;49.324;8.694;2022-07-21T14:22:53;4.95;;;3.05;;
38715;SDS011;24833;49.324;8.694;2022-07-21T14:25:23;5.00;;;3.15;;
38715;SDS011;24833;49.324;8.694;2022-07-21T14:27:51;5.38;;;3.33;;
38715;SDS011;24833;49.324;8.694;2022-07-21T14:30:21;4.15;;;3.22;;
38715;SDS011;24833;49.324;8.694;2022-07-21T14:32:53;2.83;;;2.55;;
38715;SDS011;24833;49.324;8.694;2022-07-21T14:35:22;7.53;;;2.60;;
38715;SDS011;24833;49.324;8.694;2022-07-21T14:37:49;5.47;;;2.80;;
38715;SDS011;24833;49.324;8.694;2022-07-21T14:40:17;2.95;;;2.75;;
38715;SDS011;24833;49.324;8.694;2022-07-21T14:42:46;2.42;;;2.22;;
38715;SDS011;24833;49.324;8.694;2022-07-21T14:45:15;3.83;;;2.47;;
38715;SDS011;24833;49.324;8.694;2022-07-21T14:47:51;6.97;;;2.60;;
38715;SDS011;24833;49.324;8.694;2022-07-21T14:50:21;2.70;;;2.40;;
38715;SDS011;24833;49.324;8.694;2022-07-21T14:52:54;4.47;;;3.17;;
38715;SDS011;24833;49.324;8.694;2022-07-21T14:55:24;9.45;;;3.33;;
38715;SDS011;24833;49.324;8.694;2022-07-21T14:57:57;4.95;;;3.13;;
38715;SDS011;24833;49.324;8.694;2022-07-21T15:00:24;4.22;;;3.05;;
38715;SDS011;24833;49.324;8.694;2022-07-21T15:02:52;3.67;;;2.72;;
38715;SDS011;24833;49.324;8.694;2022-07-21T15:05:21;2.93;;;2.57;;
38715;SDS011;24833;49.324;8.694;2022-07-21T15:07:48;3.45;;;2.88;;
38715;SDS011;24833;49.324;8.694;2022-07-21T15:10:16;4.25;;;3.45;;
38715;SDS011;24833;49.324;8.694;2022-07-21T15:12:43;6.35;;;3.08;;
38715;SDS011;24833;49.324;8.694;2022-07-21T15:15:10;4.50;;;2.53;;
38715;SDS011;24833;49.324;8.694;2022-07-21T15:17:38;3.72;;;2.35;;
38715;SDS011;24833;49.324;8.694;2022-07-21T15:20:05;3.20;;;2.90;;
38715;SDS011;24833;49.324;8.694;2022-07-21T15:22:39;3.35;;;2.70;;